sensor_id;sensor_type;location;lat;lon;timestamp;P1;P2;P0
62981;PMS5003;49075;53.988;27.678;2023-07-02T00:02:01;27.8;27.2;19.4
62981;PMS5003;49075;53.988;27.678;2023-07-02T00:07:01;25.4;24.4;18.2
62981;PMS5003;49075;53.988;27.678;2023-07-02T00:12:23;23.2;22.8;17.6
62981;PMS5003;49075;53.988;27.678;2023-07-02T00:17:01;29.6;28;21
62981;PMS5003;49075;53.988;27.678;2023-07-02T00:22:23;26.8;26.2;20
62981;PMS5003;49075;53.988;27.678;2023-07-02T00:27:15;27.2;25.6;19.2
62981;PMS5003;49075;53.988;27.678;2023-07-02T00:32:01;27.4;26.8;20.4
62981;PMS5003;49075;53.988;27.678;2023-07-02T00:37:15;27;26.8;20.2
62981;PMS5003;49075;53.988;27.678;2023-07-02T00:42:13;31;29.6;20.6
62981;PMS5003;49075;53.988;27.678;2023-07-02T00:47:27;29.8;28.8;21.6
62981;PMS5003;49075;53.988;27.678;2023-07-02T00:52:01;31;29.8;21.5
62981;PMS5003;49075;53.988;27.678;2023-07-02T00:57:01;27;25;18.2
62981;PMS5003;49075;53.988;27.678;2023-07-02T01:02:01;24.2;23.8;18.6
62981;PMS5003;49075;53.988;27.678;2023-07-02T01:07:15;26.2;25.2;18.8
62981;PMS5003;49075;53.988;27.678;2023-07-02T01:12:02;30.6;29.2;21.4
62981;PMS5003;49075;53.988;27.678;2023-07-02T01:17:02;27.8;27.6;19.8
62981;PMS5003;49075;53.988;27.678;2023-07-02T01:22:13;26.2;25.6;19.2
62981;PMS5003;49075;53.988;27.678;2023-07-02T01:27:37;29.4;28.8;21.6
62981;PMS5003;49075;53.988;27.678;2023-07-02T01:32:02;30;29.4;21
62981;PMS5003;49075;53.988;27.678;2023-07-02T01:37:02;28.8;27.8;20
62981;PMS5003;49075;53.988;27.678;2023-07-02T01:42:16;27.2;26.4;19.4
62981;PMS5003;49075;53.988;27.678;2023-07-02T01:47:15;28.8;27.8;21.2
62981;PMS5003;49075;53.988;27.678;2023-07-02T01:52:27;29.8;28;20.5
62981;PMS5003;49075;53.988;27.678;2023-07-02T01:57:01;29.4;26.6;18.8
62981;PMS5003;49075;53.988;27.678;2023-07-02T02:02:15;31;29.4;21.4
62981;PMS5003;49075;53.988;27.678;2023-07-02T02:07:37;28.6;27.8;19.4
62981;PMS5003;49075;53.988;27.678;2023-07-02T02:12:15;30.8;28.8;21.2
62981;PMS5003;49075;53.988;27.678;2023-07-02T02:17:01;30.8;28.8;21.6
62981;PMS5003;49075;53.988;27.678;2023-07-02T02:22:01;30;29.4;21.4
62981;PMS5003;49075;53.988;27.678;2023-07-02T02:27:13;32.8;31;22.8
62981;PMS5003;49075;53.988;27.678;2023-07-02T02:32:13;32.8;30.6;22
62981;PMS5003;49075;53.988;27.678;2023-07-02T02:37:09;28.2;27.4;20.2
62981;PMS5003;49075;53.988;27.678;2023-07-02T02:42:29;31.6;30.2;21
62981;PMS5003;49075;53.988;27.678;2023-07-02T02:47:27;31;29.8;21.4
62981;PMS5003;49075;53.988;27.678;2023-07-02T02:52:02;32;29.8;20.8
62981;PMS5003;49075;53.988;27.678;2023-07-02T02:57:15;29.2;28.4;21
62981;PMS5003;49075;53.988;27.678;2023-07-02T03:02:01;32.4;29.8;21
62981;PMS5003;49075;53.988;27.678;2023-07-02T03:07:53;28.2;27;21
62981;PMS5003;49075;53.988;27.678;2023-07-02T03:12:02;31.6;31;22.4
62981;PMS5003;49075;53.988;27.678;2023-07-02T03:17:01;26;25.4;19.6
62981;PMS5003;49075;53.988;27.678;2023-07-02T03:22:15;28.2;28;20.6
62981;PMS5003;49075;53.988;27.678;2023-07-02T03:27:15;26.8;26.4;19.2
62981;PMS5003;49075;53.988;27.678;2023-07-02T03:32:27;32;30.2;21
62981;PMS5003;49075;53.988;27.678;2023-07-02T03:37:13;27.6;25.6;19
62981;PMS5003;49075;53.988;27.678;2023-07-02T03:42:23;27.4;27;19.8
62981;PMS5003;49075;53.988;27.678;2023-07-02T03:47:09;32.2;31.2;21.8
62981;PMS5003;49075;53.988;27.678;2023-07-02T03:52:43;33.2;30.6;21.8
62981;PMS5003;49075;53.988;27.678;2023-07-02T03:57:01;31.8;30.3;21.8
62981;PMS5003;49075;53.988;27.678;2023-07-02T04:02:15;27.8;27.2;20
62981;PMS5003;49075;53.988;27.678;2023-07-02T04:07:01;25.4;24.6;18.8
62981;PMS5003;49075;53.988;27.678;2023-07-02T04:12:15;26.4;25.6;20.2
62981;PMS5003;49075;53.988;27.678;2023-07-02T04:17:23;28.4;27;19.4
62981;PMS5003;49075;53.988;27.678;2023-07-02T04:22:25;28;27;19.6
62981;PMS5003;49075;53.988;27.678;2023-07-02T04:27:16;31.6;30;21.8
62981;PMS5003;49075;53.988;27.678;2023-07-02T04:32:15;29.4;27.4;20.4
62981;PMS5003;49075;53.988;27.678;2023-07-02T04:37:02;28.6;28;21
62981;PMS5003;49075;53.988;27.678;2023-07-02T04:42:25;27.6;26.4;19.4
62981;PMS5003;49075;53.988;27.678;2023-07-02T04:47:23;26.2;25.8;19.2
62981;PMS5003;49075;53.988;27.678;2023-07-02T04:52:15;29.2;28.2;19.8
62981;PMS5003;49075;53.988;27.678;2023-07-02T04:57:16;24.3;23.5;18
62981;PMS5003;49075;53.988;27.678;2023-07-02T05:02:02;26.6;25.4;18.8
62981;PMS5003;49075;53.988;27.678;2023-07-02T05:07:29;26.2;25.2;19.8
62981;PMS5003;49075;53.988;27.678;2023-07-02T05:12:15;24.6;24.6;18.4
62981;PMS5003;49075;53.988;27.678;2023-07-02T05:17:03;23.2;23;17.8
62981;PMS5003;49075;53.988;27.678;2023-07-02T05:22:10;27.2;26.6;20.6
62981;PMS5003;49075;53.988;27.678;2023-07-02T05:27:16;26.8;26.2;20.6
62981;PMS5003;49075;53.988;27.678;2023-07-02T05:32:02;23.8;23.4;18.6
62981;PMS5003;49075;53.988;27.678;2023-07-02T05:37:24;26.4;25.6;18.4
62981;PMS5003;49075;53.988;27.678;2023-07-02T05:42:14;23.4;23.4;17.8
62981;PMS5003;49075;53.988;27.678;2023-07-02T05:47:02;25.6;25.2;19.4
62981;PMS5003;49075;53.988;27.678;2023-07-02T05:52:14;26.8;26.4;19.6
62981;PMS5003;49075;53.988;27.678;2023-07-02T05:57:22;28.3;26.8;19.8
62981;PMS5003;49075;53.988;27.678;2023-07-02T06:02:26;29.4;28.4;21
62981;PMS5003;49075;53.988;27.678;2023-07-02T06:07:02;27.2;26.4;19.8
62981;PMS5003;49075;53.988;27.678;2023-07-02T06:12:24;27.4;26.8;20
62981;PMS5003;49075;53.988;27.678;2023-07-02T06:17:16;23.2;22.4;17.4
62981;PMS5003;49075;53.988;27.678;2023-07-02T06:22:02;28.4;28;20.4
62981;PMS5003;49075;53.988;27.678;2023-07-02T06:27:16;27.4;26.4;19.2
62981;PMS5003;49075;53.988;27.678;2023-07-02T06:32:02;27.2;26;19.4
62981;PMS5003;49075;53.988;27.678;2023-07-02T06:37:14;20.6;20;16.8
62981;PMS5003;49075;53.988;27.678;2023-07-02T06:42:16;25;24.2;18.6
62981;PMS5003;49075;53.988;27.678;2023-07-02T06:47:30;22.8;22.4;17.4
62981;PMS5003;49075;53.988;27.678;2023-07-02T06:52:22;23.8;23.6;17.2
62981;PMS5003;49075;53.988;27.678;2023-07-02T06:57:28;28.5;26.5;19.8
62981;PMS5003;49075;53.988;27.678;2023-07-02T07:02:02;23.6;22.6;16.6
62981;PMS5003;49075;53.988;27.678;2023-07-02T07:07:44;27.6;27.2;19.2
62981;PMS5003;49075;53.988;27.678;2023-07-02T07:12:16;25.8;25.4;18.4
62981;PMS5003;49075;53.988;27.678;2023-07-02T07:17:28;27;25;19
62981;PMS5003;49075;53.988;27.678;2023-07-02T07:22:16;29.8;28.8;20.8
62981;PMS5003;49075;53.988;27.678;2023-07-02T07:27:28;26;25;18
62981;PMS5003;49075;53.988;27.678;2023-07-02T07:32:02;27.8;27.6;19.8
62981;PMS5003;49075;53.988;27.678;2023-07-02T07:37:10;26.4;25.6;17.8
62981;PMS5003;49075;53.988;27.678;2023-07-02T07:42:30;26.2;25.6;18.6
62981;PMS5003;49075;53.988;27.678;2023-07-02T07:47:02;27.6;26.4;19.6
62981;PMS5003;49075;53.988;27.678;2023-07-02T07:52:16;30.6;28.6;20.8
62981;PMS5003;49075;53.988;27.678;2023-07-02T07:57:02;28.3;27.3;19.8
62981;PMS5003;49075;53.988;27.678;2023-07-02T08:02:14;28.6;27.8;20.2
62981;PMS5003;49075;53.988;27.678;2023-07-02T08:07:02;30.2;29;21.2
62981;PMS5003;49075;53.988;27.678;2023-07-02T08:12:24;27.4;26.8;19.6
62981;PMS5003;49075;53.988;27.678;2023-07-02T08:17:16;28.6;27.2;20
62981;PMS5003;49075;53.988;27.678;2023-07-02T08:22:16;27.2;26.8;19.2
62981;PMS5003;49075;53.988;27.678;2023-07-02T08:27:02;29.4;26.4;19.6
62981;PMS5003;49075;53.988;27.678;2023-07-02T08:32:45;32.8;29.8;21.6
62981;PMS5003;49075;53.988;27.678;2023-07-02T08:37:14;34.2;31.2;21.8
62981;PMS5003;49075;53.988;27.678;2023-07-02T08:42:02;30.2;28.4;19.4
62981;PMS5003;49075;53.988;27.678;2023-07-02T08:47:22;32.6;30.4;21.4
62981;PMS5003;49075;53.988;27.678;2023-07-02T08:52:02;34;31;20.6
62981;PMS5003;49075;53.988;27.678;2023-07-02T08:57:30;32.4;30;20.4
62981;PMS5003;49075;53.988;27.678;2023-07-02T09:02:02;30.3;28.3;20
62981;PMS5003;49075;53.988;27.678;2023-07-02T09:07:03;34.2;31.6;22
62981;PMS5003;49075;53.988;27.678;2023-07-02T09:12:10;37.6;32.8;22.2
62981;PMS5003;49075;53.988;27.678;2023-07-02T09:17:26;36.6;32.2;22.6
62981;PMS5003;49075;53.988;27.678;2023-07-02T09:22:02;36.6;32.8;22.4
62981;PMS5003;49075;53.988;27.678;2023-07-02T09:27:02;30.4;29.6;20.8
62981;PMS5003;49075;53.988;27.678;2023-07-02T09:32:26;31;30;20.8
62981;PMS5003;49075;53.988;27.678;2023-07-02T09:37:02;34;30.8;21.2
62981;PMS5003;49075;53.988;27.678;2023-07-02T09:42:14;34.2;30.8;21
62981;PMS5003;49075;53.988;27.678;2023-07-02T09:47:22;34.8;31.8;21.4
62981;PMS5003;49075;53.988;27.678;2023-07-02T09:52:02;34;30.8;20.8
62981;PMS5003;49075;53.988;27.678;2023-07-02T09:57:02;33.6;30.4;20.8
62981;PMS5003;49075;53.988;27.678;2023-07-02T10:02:02;32;31;21.5
62981;PMS5003;49075;53.988;27.678;2023-07-02T10:07:28;34.4;31.2;20.8
62981;PMS5003;49075;53.988;27.678;2023-07-02T10:12:02;31.6;29.8;19.8
62981;PMS5003;49075;53.988;27.678;2023-07-02T10:17:30;35.6;32.4;21.6
62981;PMS5003;49075;53.988;27.678;2023-07-02T10:22:10;39.8;34.8;23.4
62981;PMS5003;49075;53.988;27.678;2023-07-02T10:27:02;39.2;34.6;22.4
62981;PMS5003;49075;53.988;27.678;2023-07-02T10:32:25;36.4;31.6;21
62981;PMS5003;49075;53.988;27.678;2023-07-02T10:37:16;36.6;33.4;23
62981;PMS5003;49075;53.988;27.678;2023-07-02T10:42:14;33.4;30.6;20.6
62981;PMS5003;49075;53.988;27.678;2023-07-02T10:47:14;36.6;33;22.6
62981;PMS5003;49075;53.988;27.678;2023-07-02T10:52:02;35;31.4;22.2
62981;PMS5003;49075;53.988;27.678;2023-07-02T10:57:02;36.2;32.4;22.2
62981;PMS5003;49075;53.988;27.678;2023-07-02T11:02:33;36.5;33.5;23.3
62981;PMS5003;49075;53.988;27.678;2023-07-02T11:07:28;36;32.6;22.4
62981;PMS5003;49075;53.988;27.678;2023-07-02T11:12:02;35.4;31.8;22.4
62981;PMS5003;49075;53.988;27.678;2023-07-02T11:17:03;36.2;32.8;22.8
62981;PMS5003;49075;53.988;27.678;2023-07-02T11:22:14;33.8;30.2;21.4
62981;PMS5003;49075;53.988;27.678;2023-07-02T11:27:02;36.6;33.4;22.6
62981;PMS5003;49075;53.988;27.678;2023-07-02T11:32:05;33.8;30.6;21.6
62981;PMS5003;49075;53.988;27.678;2023-07-02T11:37:03;39.8;35;23
62981;PMS5003;49075;53.988;27.678;2023-07-02T11:42:29;35.4;31.8;22
62981;PMS5003;49075;53.988;27.678;2023-07-02T11:47:16;37.2;32.8;22.4
62981;PMS5003;49075;53.988;27.678;2023-07-02T11:52:14;38.4;34;24
62981;PMS5003;49075;53.988;27.678;2023-07-02T11:57:14;37.6;33.6;22.2
62981;PMS5003;49075;53.988;27.678;2023-07-02T12:02:10;34.8;31;21.3
62981;PMS5003;49075;53.988;27.678;2023-07-02T12:07:30;32.8;29.8;20.8
62981;PMS5003;49075;53.988;27.678;2023-07-02T12:12:24;28.8;27.4;19
62981;PMS5003;49075;53.988;27.678;2023-07-02T12:17:02;32;30.2;20
62981;PMS5003;49075;53.988;27.678;2023-07-02T12:22:16;33.2;30.4;21
62981;PMS5003;49075;53.988;27.678;2023-07-02T12:27:02;32.4;29;20
62981;PMS5003;49075;53.988;27.678;2023-07-02T12:32:02;31;29.2;20.6
62981;PMS5003;49075;53.988;27.678;2023-07-02T12:37:10;30.4;29;19.6
62981;PMS5003;49075;53.988;27.678;2023-07-02T12:42:44;34.4;31.6;22
62981;PMS5003;49075;53.988;27.678;2023-07-02T12:47:30;32;29.4;21.4
62981;PMS5003;49075;53.988;27.678;2023-07-02T12:52:02;35.6;31.8;22.2
62981;PMS5003;49075;53.988;27.678;2023-07-02T12:57:44;38;32.8;22.4
62981;PMS5003;49075;53.988;27.678;2023-07-02T13:02:28;36.5;33;22
62981;PMS5003;49075;53.988;27.678;2023-07-02T13:07:10;32.4;29.8;21
62981;PMS5003;49075;53.988;27.678;2023-07-02T13:12:02;32.4;30.6;21
62981;PMS5003;49075;53.988;27.678;2023-07-02T13:17:30;38.4;34.6;23.8
62981;PMS5003;49075;53.988;27.678;2023-07-02T13:22:02;36.4;32.6;22.6
62981;PMS5003;49075;53.988;27.678;2023-07-02T13:27:30;33.8;30.8;21.6
62981;PMS5003;49075;53.988;27.678;2023-07-02T13:32:02;37.8;32.8;22.8
62981;PMS5003;49075;53.988;27.678;2023-07-02T13:37:02;33.8;31.6;22.4
62981;PMS5003;49075;53.988;27.678;2023-07-02T13:42:02;36;33.4;22.4
62981;PMS5003;49075;53.988;27.678;2023-07-02T13:47:02;34.2;31.2;21.6
62981;PMS5003;49075;53.988;27.678;2023-07-02T13:52:28;35.8;32.4;22.8
62981;PMS5003;49075;53.988;27.678;2023-07-02T13:57:14;34.6;32.4;21.4
62981;PMS5003;49075;53.988;27.678;2023-07-02T14:02:14;31;30.2;21
62981;PMS5003;49075;53.988;27.678;2023-07-02T14:07:11;35.5;32.5;22.8
62981;PMS5003;49075;53.988;27.678;2023-07-02T14:12:10;36;33.2;23.2
62981;PMS5003;49075;53.988;27.678;2023-07-02T14:17:16;35.2;32.4;22.6
62981;PMS5003;49075;53.988;27.678;2023-07-02T14:22:16;33.4;31.4;22.6
62981;PMS5003;49075;53.988;27.678;2023-07-02T14:27:10;36.6;33.4;22.8
62981;PMS5003;49075;53.988;27.678;2023-07-02T14:32:54;33.2;30;21
62981;PMS5003;49075;53.988;27.678;2023-07-02T14:37:14;32.4;31;21.8
62981;PMS5003;49075;53.988;27.678;2023-07-02T14:42:02;36.8;33;23.4
62981;PMS5003;49075;53.988;27.678;2023-07-02T14:47:02;34.4;31.4;22.2
62981;PMS5003;49075;53.988;27.678;2023-07-02T14:52:28;35.4;32.8;22.6
62981;PMS5003;49075;53.988;27.678;2023-07-02T14:57:02;32.6;30.4;21.4
62981;PMS5003;49075;53.988;27.678;2023-07-02T15:02:16;30.4;28.4;20.6
62981;PMS5003;49075;53.988;27.678;2023-07-02T15:07:14;33.5;31.3;21.8
62981;PMS5003;49075;53.988;27.678;2023-07-02T15:12:02;31.2;30.2;21.6
62981;PMS5003;49075;53.988;27.678;2023-07-02T15:17:10;36.2;32.4;23
62981;PMS5003;49075;53.988;27.678;2023-07-02T15:22:02;29;27.6;19.6
62981;PMS5003;49075;53.988;27.678;2023-07-02T15:27:02;36.2;32.4;22.8
62981;PMS5003;49075;53.988;27.678;2023-07-02T15:32:16;36.2;32.2;22.2
62981;PMS5003;49075;53.988;27.678;2023-07-02T15:37:44;35.4;32.2;22.6
62981;PMS5003;49075;53.988;27.678;2023-07-02T15:42:02;33.6;31;22.2
62981;PMS5003;49075;53.988;27.678;2023-07-02T15:47:28;37.2;33;23
62981;PMS5003;49075;53.988;27.678;2023-07-02T15:52:02;34.6;31.6;21.8
62981;PMS5003;49075;53.988;27.678;2023-07-02T15:57:02;35.6;32;22.4
62981;PMS5003;49075;53.988;27.678;2023-07-02T16:02:12;38.8;34.6;23.2
62981;PMS5003;49075;53.988;27.678;2023-07-02T16:07:14;35.5;32;22.3
62981;PMS5003;49075;53.988;27.678;2023-07-02T16:12:16;39.6;35.2;23.6
62981;PMS5003;49075;53.988;27.678;2023-07-02T16:17:14;38.2;33.2;22.4
62981;PMS5003;49075;53.988;27.678;2023-07-02T16:22:14;36.6;33;23.8
62981;PMS5003;49075;53.988;27.678;2023-07-02T16:27:05;34.6;31.6;22
62981;PMS5003;49075;53.988;27.678;2023-07-02T16:32:16;36.6;33.4;22.8
62981;PMS5003;49075;53.988;27.678;2023-07-02T16:37:02;21;20.8;16
62981;PMS5003;49075;53.988;27.678;2023-07-02T16:42:32;16;16;12.8
62981;PMS5003;49075;53.988;27.678;2023-07-02T16:47:14;21.2;20.6;16
62981;PMS5003;49075;53.988;27.678;2023-07-02T16:52:02;23;22.4;17.8
62981;PMS5003;49075;53.988;27.678;2023-07-02T16:57:10;21.2;20.2;15.8
62981;PMS5003;49075;53.988;27.678;2023-07-02T17:02:24;24.6;24.2;17.6
62981;PMS5003;49075;53.988;27.678;2023-07-02T17:07:16;23.5;23;17.3
62981;PMS5003;49075;53.988;27.678;2023-07-02T17:12:17;21;20.4;15.8
62981;PMS5003;49075;53.988;27.678;2023-07-02T17:17:25;24.4;24.4;18.2
62981;PMS5003;49075;53.988;27.678;2023-07-02T17:22:15;17.4;17;14
62981;PMS5003;49075;53.988;27.678;2023-07-02T17:27:02;18.4;18.4;14.4
62981;PMS5003;49075;53.988;27.678;2023-07-02T17:32:22;19;18;14.4
62981;PMS5003;49075;53.988;27.678;2023-07-02T17:37:24;18;17.8;13.6
62981;PMS5003;49075;53.988;27.678;2023-07-02T17:42:17;20;19.6;15.2
62981;PMS5003;49075;53.988;27.678;2023-07-02T17:47:40;21.2;20.8;16.2
62981;PMS5003;49075;53.988;27.678;2023-07-02T17:52:02;22.6;22.2;17
62981;PMS5003;49075;53.988;27.678;2023-07-02T17:57:02;23;22.8;16.6
62981;PMS5003;49075;53.988;27.678;2023-07-02T18:02:16;20.4;19.8;16.6
62981;PMS5003;49075;53.988;27.678;2023-07-02T18:07:11;20.6;20;15.6
62981;PMS5003;49075;53.988;27.678;2023-07-02T18:12:02;21;20.5;16.3
62981;PMS5003;49075;53.988;27.678;2023-07-02T18:17:16;22;21.6;16.8
62981;PMS5003;49075;53.988;27.678;2023-07-02T18:22:16;22;21.6;17.4
62981;PMS5003;49075;53.988;27.678;2023-07-02T18:27:28;19.2;19;16
62981;PMS5003;49075;53.988;27.678;2023-07-02T18:32:03;21.8;21.8;16.6
62981;PMS5003;49075;53.988;27.678;2023-07-02T18:37:10;21.6;21.4;16
62981;PMS5003;49075;53.988;27.678;2023-07-02T18:42:10;20.6;19.8;15.2
62981;PMS5003;49075;53.988;27.678;2023-07-02T18:47:24;18.8;18.2;14
62981;PMS5003;49075;53.988;27.678;2023-07-02T18:52:38;17.6;17;13.6
62981;PMS5003;49075;53.988;27.678;2023-07-02T18:57:28;17.4;17.4;13.4
62981;PMS5003;49075;53.988;27.678;2023-07-02T19:02:03;20.2;20;15.4
62981;PMS5003;49075;53.988;27.678;2023-07-02T19:07:10;16.4;16.4;12.8
62981;PMS5003;49075;53.988;27.678;2023-07-02T19:12:10;20;20;14.8
62981;PMS5003;49075;53.988;27.678;2023-07-02T19:17:16;19.6;19.2;14.8
62981;PMS5003;49075;53.988;27.678;2023-07-02T19:22:02;21.4;20.6;15.4
62981;PMS5003;49075;53.988;27.678;2023-07-02T19:27:16;19.2;19.2;15.6
62981;PMS5003;49075;53.988;27.678;2023-07-02T19:32:02;17.6;17.6;15.2
62981;PMS5003;49075;53.988;27.678;2023-07-02T19:37:02;17.6;17.6;14.4
62981;PMS5003;49075;53.988;27.678;2023-07-02T19:42:40;17;16.4;13.8
62981;PMS5003;49075;53.988;27.678;2023-07-02T19:47:02;14.2;14;11.6
62981;PMS5003;49075;53.988;27.678;2023-07-02T19:52:02;16;15.8;13
62981;PMS5003;49075;53.988;27.678;2023-07-02T19:57:02;15.6;15.4;12.4
62981;PMS5003;49075;53.988;27.678;2023-07-02T20:02:30;17.8;17.6;14.4
62981;PMS5003;49075;53.988;27.678;2023-07-02T20:07:02;19.2;19;14.4
62981;PMS5003;49075;53.988;27.678;2023-07-02T20:12:03;19.3;19;15.5
62981;PMS5003;49075;53.988;27.678;2023-07-02T20:17:40;17.8;17.6;14.6
62981;PMS5003;49075;53.988;27.678;2023-07-02T20:22:16;21.4;21;15.6
62981;PMS5003;49075;53.988;27.678;2023-07-02T20:27:02;19.2;18.8;15
62981;PMS5003;49075;53.988;27.678;2023-07-02T20:32:28;16.2;15.8;12.4
62981;PMS5003;49075;53.988;27.678;2023-07-02T20:37:02;16.4;16;13.4
62981;PMS5003;49075;53.988;27.678;2023-07-02T20:42:02;19.6;19.6;15.8
62981;PMS5003;49075;53.988;27.678;2023-07-02T20:47:14;19;18.8;14.8
62981;PMS5003;49075;53.988;27.678;2023-07-02T20:52:03;16;15.8;12.6
62981;PMS5003;49075;53.988;27.678;2023-07-02T20:57:02;16.4;16.2;12.8
62981;PMS5003;49075;53.988;27.678;2023-07-02T21:02:16;17.4;17.2;13.6
62981;PMS5003;49075;53.988;27.678;2023-07-02T21:07:14;18;17.4;13.6
62981;PMS5003;49075;53.988;27.678;2023-07-02T21:12:14;15.5;15;11.5
62981;PMS5003;49075;53.988;27.678;2023-07-02T21:17:28;23.6;22.6;16
62981;PMS5003;49075;53.988;27.678;2023-07-02T21:22:16;20.6;20.4;16.4
62981;PMS5003;49075;53.988;27.678;2023-07-02T21:27:10;18.4;18;15
62981;PMS5003;49075;53.988;27.678;2023-07-02T21:32:30;18;17.6;14.8
62981;PMS5003;49075;53.988;27.678;2023-07-02T21:37:30;17.8;17.4;13.2
62981;PMS5003;49075;53.988;27.678;2023-07-02T21:42:02;17.8;17.4;14.2
62981;PMS5003;49075;53.988;27.678;2023-07-02T21:47:14;17;16.4;13.6
62981;PMS5003;49075;53.988;27.678;2023-07-02T21:52:28;17.8;17.2;13.4
62981;PMS5003;49075;53.988;27.678;2023-07-02T21:57:52;17.6;17.4;13.4
62981;PMS5003;49075;53.988;27.678;2023-07-02T22:02:16;22;21.6;16.4
62981;PMS5003;49075;53.988;27.678;2023-07-02T22:07:03;20.8;20.4;15
62981;PMS5003;49075;53.988;27.678;2023-07-02T22:12:16;16.8;16;12.8
62981;PMS5003;49075;53.988;27.678;2023-07-02T22:17:24;21.2;20.4;16.4
62981;PMS5003;49075;53.988;27.678;2023-07-02T22:22:02;18;18;14.6
62981;PMS5003;49075;53.988;27.678;2023-07-02T22:27:24;20.6;20.6;16.4
62981;PMS5003;49075;53.988;27.678;2023-07-02T22:32:16;21.8;21.6;16.8
62981;PMS5003;49075;53.988;27.678;2023-07-02T22:37:02;20.2;19.6;15.8
62981;PMS5003;49075;53.988;27.678;2023-07-02T22:42:16;19;18.8;14.2
62981;PMS5003;49075;53.988;27.678;2023-07-02T22:47:41;20;19.4;15.4
62981;PMS5003;49075;53.988;27.678;2023-07-02T22:52:16;16.8;15.8;12.2
62981;PMS5003;49075;53.988;27.678;2023-07-02T22:57:02;19.8;19.2;15.6
62981;PMS5003;49075;53.988;27.678;2023-07-02T23:02:15;21.4;21;16.2
62981;PMS5003;49075;53.988;27.678;2023-07-02T23:07:02;18.2;18.2;14.8
62981;PMS5003;49075;53.988;27.678;2023-07-02T23:12:02;18.4;18.2;15
62981;PMS5003;49075;53.988;27.678;2023-07-02T23:17:02;20;20;15.8
62981;PMS5003;49075;53.988;27.678;2023-07-02T23:22:02;19.6;19.2;15.8
62981;PMS5003;49075;53.988;27.678;2023-07-02T23:27:26;18.8;18.8;15.4
62981;PMS5003;49075;53.988;27.678;2023-07-02T23:32:38;20.2;19.2;14.4
62981;PMS5003;49075;53.988;27.678;2023-07-02T23:37:22;17.4;17.2;13.2
62981;PMS5003;49075;53.988;27.678;2023-07-02T23:42:02;22.6;21;16.8
62981;PMS5003;49075;53.988;27.678;2023-07-02T23:47:14;20.8;20.8;16
62981;PMS5003;49075;53.988;27.678;2023-07-02T23:52:10;20.6;20.2;15
62981;PMS5003;49075;53.988;27.678;2023-07-02T23:57:28;18.8;18.6;15.6
